Time;durP1;ratioP1;P1;durP2;ratioP2;P2;SDS_P1;SDS_P2;PMS_P1;PMS_P2;Temp;Humidity;BMP_temperature;BMP_pressure;BME280_temperature;BME280_humidity;BME280_pressure;Samples;Min_cycle;Max_cycle;Signal;HPM_P1;HPM_P2
2022/06/23 00:02:01;;;;;;;29.65;15.93;;;;;;;;;;5030466;28;20132;-68
2022/06/23 00:04:32;;;;;;;32.33;17.08;;;;;;;;;;5014395;28;20061;-68
2022/06/23 00:07:01;;;;;;;35.58;17.67;;;;;;;;;;5030435;28;20046;-68
2022/06/23 00:09:27;;;;;;;28.55;16.05;;;;;;;;;;5014874;28;20050;-68
2022/06/23 00:11:54;;;;;;;27.42;16.65;;;;;;;;;;5011909;28;20128;-68
2022/06/23 00:14:21;;;;;;;28.48;18.67;;;;;;;;;;5012938;28;20053;-67
2022/06/23 00:16:48;;;;;;;33.50;18.67;;;;;;;;;;5014523;28;20054;-68
2022/06/23 00:19:14;;;;;;;33.15;17.98;;;;;;;;;;5015698;28;20089;-68
2022/06/23 00:21:48;;;;;;;35.30;20.25;;;;;;;;;;5018399;28;20056;-68
2022/06/23 00:24:24;;;;;;;40.50;20.50;;;;;;;;;;5034432;28;20049;-68
2022/06/23 00:26:51;;;;;;;54.22;22.20;;;;;;;;;;5018018;28;20049;-68
2022/06/23 00:29:19;;;;;;;36.20;20.42;;;;;;;;;;5018008;28;20049;-68
2022/06/23 00:31:53;;;;;;;40.85;22.27;;;;;;;;;;5033847;28;20049;-67
2022/06/23 00:34:25;;;;;;;56.78;21.83;;;;;;;;;;5033402;28;20053;-68
2022/06/23 00:37:04;;;;;;;33.47;19.45;;;;;;;;;;5015635;28;20053;-67
2022/06/23 00:39:53;;;;;;;31.05;19.70;;;;;;;;;;4998684;28;20049;-67
2022/06/23 00:42:23;;;;;;;33.10;20.88;;;;;;;;;;5015250;28;20049;-68
2022/06/23 00:45:11;;;;;;;36.03;23.25;;;;;;;;;;5015270;28;20100;-67
2022/06/23 00:47:46;;;;;;;39.33;23.52;;;;;;;;;;5026610;28;20045;-68
2022/06/23 00:50:31;;;;;;;43.33;25.13;;;;;;;;;;5035085;28;20045;-68
2022/06/23 00:53:02;;;;;;;42.63;25.02;;;;;;;;;;5034810;28;20478;-68
2022/06/23 00:55:35;;;;;;;39.65;23.15;;;;;;;;;;5033564;28;20054;-68
2022/06/23 00:58:11;;;;;;;48.35;25.17;;;;;;;;;;5034988;28;20049;-67
2022/06/23 01:00:39;;;;;;;40.65;23.30;;;;;;;;;;5010953;28;20065;-67
2022/06/23 01:03:40;;;;;;;37.42;22.95;;;;;;;;;;5032502;28;20081;-67
2022/06/23 01:06:38;;;;;;;36.95;22.48;;;;;;;;;;5019357;28;20049;-68
2022/06/23 01:09:20;;;;;;;30.33;20.55;;;;;;;;;;5034789;28;20088;-67
2022/06/23 01:12:03;;;;;;;40.10;21.30;;;;;;;;;;5033651;28;20049;-68
2022/06/23 01:14:45;;;;;;;45.08;23.15;;;;;;;;;;5014806;28;20054;-68
2022/06/23 01:17:42;;;;;;;39.42;23.55;;;;;;;;;;4998191;28;20072;-68
2022/06/23 01:20:30;;;;;;;33.65;21.23;;;;;;;;;;4993523;28;20072;-68
2022/06/23 01:23:06;;;;;;;44.97;23.02;;;;;;;;;;5013727;28;20069;-68
2022/06/23 01:25:48;;;;;;;46.20;25.70;;;;;;;;;;5016026;28;20050;-68
2022/06/23 01:28:21;;;;;;;36.50;22.98;;;;;;;;;;5014339;28;20042;-68
2022/06/23 01:30:55;;;;;;;34.22;21.73;;;;;;;;;;5014413;28;20111;-68
2022/06/23 01:33:28;;;;;;;32.85;21.08;;;;;;;;;;5014365;28;20061;-67
2022/06/23 01:36:32;;;;;;;40.05;23.58;;;;;;;;;;5014445;28;20050;-68
2022/06/23 01:39:04;;;;;;;36.63;21.85;;;;;;;;;;5014183;28;20416;-67
2022/06/23 01:41:42;;;;;;;33.13;19.25;;;;;;;;;;5014293;28;20054;-67
2022/06/23 01:44:33;;;;;;;24.35;17.92;;;;;;;;;;5013054;28;20520;-68
2022/06/23 01:47:02;;;;;;;31.50;18.50;;;;;;;;;;5013608;28;20417;-68
2022/06/23 01:49:32;;;;;;;36.58;20.92;;;;;;;;;;5013119;28;20092;-68
2022/06/23 01:52:19;;;;;;;32.90;19.60;;;;;;;;;;4996954;28;20432;-68
2022/06/23 01:54:47;;;;;;;37.60;19.83;;;;;;;;;;5012760;28;20057;-67
2022/06/23 01:57:25;;;;;;;28.30;18.63;;;;;;;;;;5012731;28;20056;-67
2022/06/23 01:59:58;;;;;;;26.95;18.23;;;;;;;;;;5012740;28;20057;-68
2022/06/23 02:02:33;;;;;;;30.23;19.35;;;;;;;;;;5017134;28;20045;-68
2022/06/23 02:05:18;;;;;;;25.02;17.27;;;;;;;;;;5017347;28;20054;-68
2022/06/23 02:08:19;;;;;;;27.30;17.45;;;;;;;;;;5012540;28;20493;-68
2022/06/23 02:11:06;;;;;;;33.78;19.52;;;;;;;;;;4976346;28;20045;-68
2022/06/23 02:13:42;;;;;;;27.58;17.83;;;;;;;;;;5012436;28;20054;-67
2022/06/23 02:16:28;;;;;;;33.30;19.38;;;;;;;;;;5012369;28;20108;-68
2022/06/23 02:19:03;;;;;;;34.70;18.08;;;;;;;;;;5013771;28;20050;-67
2022/06/23 02:21:39;;;;;;;32.97;18.60;;;;;;;;;;5012346;28;20513;-68
2022/06/23 02:24:12;;;;;;;27.52;19.27;;;;;;;;;;5013476;28;20132;-68
2022/06/23 02:26:51;;;;;;;;;;;;;;;;;;5012804;28;20053;-68
2022/06/23 02:29:23;;;;;;;26.92;17.85;;;;;;;;;;5013523;28;19927;-68
2022/06/23 02:31:53;;;;;;;29.95;18.30;;;;;;;;;;5012305;28;20046;-68
2022/06/23 02:34:26;;;;;;;32.42;19.40;;;;;;;;;;5012114;28;20390;-68
2022/06/23 02:37:16;;;;;;;27.98;17.67;;;;;;;;;;5012005;28;20085;-67
2022/06/23 02:39:51;;;;;;;29.65;19.30;;;;;;;;;;5012395;28;20501;-67
2022/06/23 02:42:28;;;;;;;28.60;17.73;;;;;;;;;;5011783;28;20496;-67
2022/06/23 02:45:34;;;;;;;26.40;17.75;;;;;;;;;;5012082;28;20072;-67
2022/06/23 02:48:19;;;;;;;29.65;18.23;;;;;;;;;;4982668;28;20527;-67
2022/06/23 02:50:45;;;;;;;34.40;18.95;;;;;;;;;;5012946;28;20050;-67
2022/06/23 02:53:36;;;;;;;28.73;17.27;;;;;;;;;;5012810;28;20547;-68
2022/06/23 02:56:30;;;;;;;34.05;18.38;;;;;;;;;;5012822;28;20505;-68
2022/06/23 02:59:09;;;;;;;37.05;18.77;;;;;;;;;;5013057;28;20069;-68
2022/06/23 03:01:52;;;;;;;35.47;19.05;;;;;;;;;;5011550;28;20452;-68
2022/06/23 03:04:26;;;;;;;30.85;17.10;;;;;;;;;;5011537;28;20046;-68
2022/06/23 03:09:45;;;;;;;30.20;17.15;;;;;;;;;;5029413;28;20048;-65
2022/06/23 03:12:12;;;;;;;24.48;16.05;;;;;;;;;;5014607;28;20064;-65
2022/06/23 03:14:42;;;;;;;32.80;18.98;;;;;;;;;;5032558;28;20462;-65
2022/06/23 03:17:21;;;;;;;36.72;20.60;;;;;;;;;;5032415;28;20049;-65
2022/06/23 03:19:59;;;;;;;31.65;18.95;;;;;;;;;;5031644;28;20049;-65
2022/06/23 03:22:38;;;;;;;34.05;19.15;;;;;;;;;;5030891;28;20057;-64
2022/06/23 03:25:24;;;;;;;37.22;20.85;;;;;;;;;;5032331;28;20057;-65
2022/06/23 03:27:57;;;;;;;36.33;19.95;;;;;;;;;;5015797;28;20053;-65
2022/06/23 03:30:38;;;;;;;34.95;18.17;;;;;;;;;;5022725;28;20107;-65
2022/06/23 03:33:32;;;;;;;37.08;18.40;;;;;;;;;;5012100;28;20419;-64
2022/06/23 03:36:25;;;;;;;29.98;16.58;;;;;;;;;;5006868;28;20069;-65
2022/06/23 03:42:23;;;;;;;29.10;17.25;;;;;;;;;;4999512;28;20046;-65
2022/06/23 03:45:11;;;;;;;23.85;15.27;;;;;;;;;;5027287;28;20393;-66
2022/06/23 03:48:16;;;;;;;38.72;17.50;;;;;;;;;;5030544;28;20045;-66
2022/06/23 03:50:56;;;;;;;27.80;16.00;;;;;;;;;;5031585;28;20500;-66
2022/06/23 03:53:47;;;;;;;23.92;15.43;;;;;;;;;;5011003;28;20508;-66
2022/06/23 03:56:16;;;;;;;29.92;15.88;;;;;;;;;;5012143;28;20477;-66
2022/06/23 03:58:57;;;;;;;32.13;16.33;;;;;;;;;;5011109;28;20046;-66
2022/06/23 04:01:45;;;;;;;25.52;14.93;;;;;;;;;;4995009;28;20061;-66
2022/06/23 04:04:20;;;;;;;25.75;14.65;;;;;;;;;;5010008;28;20050;-66
2022/06/23 04:06:50;;;;;;;25.08;14.93;;;;;;;;;;5012198;28;20053;-66
2022/06/23 04:09:27;;;;;;;24.60;15.60;;;;;;;;;;5011885;28;20489;-66
2022/06/23 04:12:05;;;;;;;31.77;15.82;;;;;;;;;;4995074;28;20201;-66
2022/06/23 04:14:57;;;;;;;28.27;15.32;;;;;;;;;;5011883;28;20049;-66
2022/06/23 04:17:41;;;;;;;29.37;15.77;;;;;;;;;;5011943;28;20069;-66
2022/06/23 04:20:13;;;;;;;37.15;16.92;;;;;;;;;;5025929;28;20050;-66
2022/06/23 04:22:57;;;;;;;27.38;15.75;;;;;;;;;;5031414;28;20049;-66
2022/06/23 04:26:01;;;;;;;28.05;16.40;;;;;;;;;;5031698;28;20126;-66
2022/06/23 04:28:36;;;;;;;37.47;17.83;;;;;;;;;;5031278;28;20056;-66
2022/06/23 04:31:05;;;;;;;28.20;16.42;;;;;;;;;;5031415;28;20420;-66
2022/06/23 04:33:38;;;;;;;30.58;15.98;;;;;;;;;;5014066;28;20057;-66
2022/06/23 04:36:05;;;;;;;27.95;16.13;;;;;;;;;;5031453;28;20095;-65
2022/06/23 04:38:43;;;;;;;28.92;15.70;;;;;;;;;;5013991;28;20412;-65
2022/06/23 04:41:20;;;;;;;29.75;15.40;;;;;;;;;;4997158;28;20054;-65
2022/06/23 04:43:53;;;;;;;25.65;15.50;;;;;;;;;;5015542;28;20484;-65
2022/06/23 04:46:51;;;;;;;27.55;16.95;;;;;;;;;;5030239;28;20569;-65
2022/06/23 04:49:31;;;;;;;26.60;15.75;;;;;;;;;;5016326;28;20504;-65
2022/06/23 04:52:15;;;;;;;22.80;15.07;;;;;;;;;;5014749;28;20049;-65
2022/06/23 04:54:48;;;;;;;22.30;14.68;;;;;;;;;;5030233;28;20496;-65
2022/06/23 04:57:42;;;;;;;23.63;14.98;;;;;;;;;;5031176;28;20061;-65
2022/06/23 05:00:21;;;;;;;25.67;14.60;;;;;;;;;;5014992;28;20053;-65
2022/06/23 05:02:50;;;;;;;24.73;15.82;;;;;;;;;;5034553;28;20056;-66
2022/06/23 05:05:22;;;;;;;20.90;14.93;;;;;;;;;;5034807;28;20085;-65
2022/06/23 05:07:59;;;;;;;27.77;15.25;;;;;;;;;;5034265;28;20053;-67
2022/06/23 05:10:28;;;;;;;31.35;15.65;;;;;;;;;;5034780;28;20470;-65
2022/06/23 05:12:57;;;;;;;31.17;15.82;;;;;;;;;;5033220;28;20246;-65
2022/06/23 05:15:34;;;;;;;27.08;16.05;;;;;;;;;;5033656;28;20054;-65
2022/06/23 05:18:08;;;;;;;37.90;16.60;;;;;;;;;;5034133;28;20108;-65
2022/06/23 05:20:46;;;;;;;24.17;15.88;;;;;;;;;;5033830;28;20423;-65
2022/06/23 05:23:15;;;;;;;23.48;16.08;;;;;;;;;;5033351;28;20119;-65
2022/06/23 05:25:48;;;;;;;25.48;16.98;;;;;;;;;;5017943;28;20132;-65
2022/06/23 05:28:28;;;;;;;27.17;16.67;;;;;;;;;;5034574;28;20118;-65
2022/06/23 05:30:59;;;;;;;26.52;16.70;;;;;;;;;;5014411;28;20256;-65
2022/06/23 05:33:42;;;;;;;31.15;17.02;;;;;;;;;;5034385;28;20511;-65
2022/06/23 05:36:21;;;;;;;29.38;17.77;;;;;;;;;;5034076;28;20420;-65
2022/06/23 05:39:09;;;;;;;24.02;15.90;;;;;;;;;;5034076;28;20053;-65
2022/06/23 05:41:41;;;;;;;29.88;17.98;;;;;;;;;;5022794;28;20483;-63
2022/06/23 05:44:24;;;;;;;28.77;16.70;;;;;;;;;;5016897;28;20508;-64
2022/06/23 05:46:50;;;;;;;28.60;16.27;;;;;;;;;;5016147;28;20283;-78
2022/06/23 05:49:30;;;;;;;24.77;16.60;;;;;;;;;;5006403;28;20054;-72
2022/06/23 05:52:06;;;;;;;30.70;15.75;;;;;;;;;;5012935;28;20056;-70
2022/06/23 05:54:40;;;;;;;27.73;16.15;;;;;;;;;;5018804;28;20056;-65
2022/06/23 05:57:11;;;;;;;25.63;16.27;;;;;;;;;;5017371;28;20049;-65
2022/06/23 06:00:15;;;;;;;26.15;16.15;;;;;;;;;;5016826;28;20595;-65
2022/06/23 06:03:15;;;;;;;21.67;14.38;;;;;;;;;;4991293;28;20140;-65
2022/06/23 06:05:45;;;;;;;22.85;12.68;;;;;;;;;;5017779;28;20411;-65
2022/06/23 06:08:20;;;;;;;25.08;12.95;;;;;;;;;;5017273;28;20602;-65
2022/06/23 06:10:47;;;;;;;18.98;11.32;;;;;;;;;;5019803;28;20052;-65
2022/06/23 06:13:26;;;;;;;19.27;10.38;;;;;;;;;;5017553;28;20060;-65
2022/06/23 06:15:55;;;;;;;24.88;12.63;;;;;;;;;;5016126;28;20440;-65
2022/06/23 06:18:42;;;;;;;25.60;14.30;;;;;;;;;;5018755;28;20515;-65
2022/06/23 06:21:11;;;;;;;25.58;15.45;;;;;;;;;;5018015;28;20053;-65
2022/06/23 06:23:44;;;;;;;33.17;17.27;;;;;;;;;;5016442;28;20139;-65
2022/06/23 06:26:15;;;;;;;;;;;;;;;;;;5020043;28;20512;-65
2022/06/23 06:28:42;;;;;;;27.40;14.45;;;;;;;;;;5033286;28;19931;-64
2022/06/23 06:31:15;;;;;;;26.00;16.65;;;;;;;;;;5016827;28;20049;-65
2022/06/23 06:33:58;;;;;;;21.33;15.20;;;;;;;;;;5019382;28;20053;-64
2022/06/23 06:36:37;;;;;;;;;;;;;;;;;;5016134;28;20503;-63
2022/06/23 06:39:31;;;;;;;24.02;14.02;;;;;;;;;;5015566;28;19929;-63
2022/06/23 06:42:06;;;;;;;22.20;13.48;;;;;;;;;;5014488;28;20050;-64
2022/06/23 06:44:33;;;;;;;25.10;13.95;;;;;;;;;;5018458;28;20053;-64
2022/06/23 06:47:00;;;;;;;22.10;13.75;;;;;;;;;;5016978;28;20057;-64
2022/06/23 06:49:28;;;;;;;16.85;13.18;;;;;;;;;;5016449;28;20498;-64
2022/06/23 06:51:55;;;;;;;19.15;14.20;;;;;;;;;;5016349;28;20416;-64
2022/06/23 06:54:28;;;;;;;17.42;12.40;;;;;;;;;;5014962;28;20054;-64
2022/06/23 06:56:57;;;;;;;18.77;10.90;;;;;;;;;;5022287;28;20056;-64
2022/06/23 06:59:25;;;;;;;14.90;10.48;;;;;;;;;;5015943;28;20069;-64
2022/06/23 07:02:10;;;;;;;14.05;8.73;;;;;;;;;;5011942;28;20046;-64
2022/06/23 07:04:41;;;;;;;15.77;8.90;;;;;;;;;;5018577;28;20223;-64
2022/06/23 07:07:09;;;;;;;19.60;9.55;;;;;;;;;;5014636;28;20053;-64
2022/06/23 07:09:53;;;;;;;14.85;9.07;;;;;;;;;;4999498;28;20437;-64
2022/06/23 07:12:31;;;;;;;14.10;9.32;;;;;;;;;;5015993;28;20526;-63
2022/06/23 07:15:19;;;;;;;17.92;8.25;;;;;;;;;;5029829;28;20500;-65
2022/06/23 07:18:12;;;;;;;11.50;7.20;;;;;;;;;;5015419;28;20057;-64
2022/06/23 07:20:45;;;;;;;10.67;7.60;;;;;;;;;;5000043;28;20100;-63
2022/06/23 07:23:20;;;;;;;12.70;6.85;;;;;;;;;;5014993;28;20551;-64
2022/06/23 07:25:53;;;;;;;12.55;6.40;;;;;;;;;;4999149;28;20152;-64
2022/06/23 07:28:23;;;;;;;10.00;5.28;;;;;;;;;;4997338;28;20054;-64
2022/06/23 07:30:53;;;;;;;15.90;6.78;;;;;;;;;;5017849;28;20411;-68
2022/06/23 07:33:33;;;;;;;13.18;6.13;;;;;;;;;;5003508;28;20132;-70
2022/06/23 07:36:06;;;;;;;13.98;6.38;;;;;;;;;;5018116;28;20049;-65
2022/06/23 07:38:38;;;;;;;14.48;6.75;;;;;;;;;;5001276;28;20049;-64
2022/06/23 07:41:14;;;;;;;15.07;6.95;;;;;;;;;;5015063;28;20569;-65
2022/06/23 07:44:11;;;;;;;13.65;5.82;;;;;;;;;;5017036;28;20412;-65
2022/06/23 07:46:38;;;;;;;10.07;5.20;;;;;;;;;;5025406;28;20050;-65
2022/06/23 07:49:06;;;;;;;8.48;4.88;;;;;;;;;;5018513;28;20137;-64
2022/06/23 07:51:33;;;;;;;12.70;5.47;;;;;;;;;;5019302;28;20444;-64
2022/06/23 07:53:59;;;;;;;7.95;4.68;;;;;;;;;;5018387;28;20060;-65
2022/06/23 07:56:29;;;;;;;10.50;4.60;;;;;;;;;;5016452;28;20571;-65
2022/06/23 07:59:03;;;;;;;12.13;4.38;;;;;;;;;;5000135;28;20053;-65
2022/06/23 08:01:36;;;;;;;13.13;4.30;;;;;;;;;;5016153;28;20052;-65
2022/06/23 08:04:41;;;;;;;12.07;5.32;;;;;;;;;;5014519;28;20061;-65
2022/06/23 08:07:08;;;;;;;13.37;4.10;;;;;;;;;;4971807;28;1131158;-65
2022/06/23 08:09:38;;;;;;;13.93;4.82;;;;;;;;;;5001042;28;20523;-65
2022/06/23 08:18:01;;;;;;;10.35;4.43;;;;;;;;;;5016316;28;20045;-65
2022/06/23 08:20:28;;;;;;;9.05;4.38;;;;;;;;;;5000727;28;20046;-65
2022/06/23 08:22:54;;;;;;;7.78;4.18;;;;;;;;;;5016588;28;20447;-65
2022/06/23 08:25:21;;;;;;;10.93;3.90;;;;;;;;;;5015198;28;20113;-65
2022/06/23 08:27:52;;;;;;;9.82;4.97;;;;;;;;;;5020153;28;20104;-65
2022/06/23 08:30:20;;;;;;;11.98;4.22;;;;;;;;;;5016985;28;20504;-65
2022/06/23 08:32:48;;;;;;;16.83;3.83;;;;;;;;;;5019530;28;20060;-64
2022/06/23 08:35:23;;;;;;;12.88;4.22;;;;;;;;;;5018552;28;20057;-65
2022/06/23 08:37:58;;;;;;;8.88;3.42;;;;;;;;;;5019624;28;20049;-65
2022/06/23 08:40:29;;;;;;;9.93;3.63;;;;;;;;;;5020893;28;20045;-65
2022/06/23 08:43:30;;;;;;;8.15;3.58;;;;;;;;;;5020528;28;20056;-65
2022/06/23 08:46:17;;;;;;;10.52;3.72;;;;;;;;;;5009566;28;20049;-65
2022/06/23 08:49:09;;;;;;;8.18;4.22;;;;;;;;;;5026301;28;20049;-68
2022/06/23 08:51:45;;;;;;;11.15;3.40;;;;;;;;;;5010724;28;20045;-66
2022/06/23 08:54:40;;;;;;;10.55;3.08;;;;;;;;;;5023706;28;20057;-66
2022/06/23 08:57:16;;;;;;;8.90;3.33;;;;;;;;;;5018842;28;20116;-66
2022/06/23 08:59:55;;;;;;;7.60;3.22;;;;;;;;;;5023539;28;20070;-65
2022/06/23 09:02:45;;;;;;;9.82;3.53;;;;;;;;;;5004487;28;20049;-65
2022/06/23 09:05:36;;;;;;;12.45;4.30;;;;;;;;;;5020851;28;20045;-66
2022/06/23 09:08:24;;;;;;;7.20;2.63;;;;;;;;;;5020204;28;20050;-66
2022/06/23 09:11:22;;;;;;;9.60;3.22;;;;;;;;;;5026343;28;20045;-64
2022/06/23 09:13:55;;;;;;;9.50;2.22;;;;;;;;;;5018232;28;20050;-69
2022/06/23 09:16:43;;;;;;;9.43;2.55;;;;;;;;;;5023398;28;20049;-69
2022/06/23 09:19:31;;;;;;;7.88;2.47;;;;;;;;;;5025379;28;20107;-67
2022/06/23 09:22:27;;;;;;;8.98;3.17;;;;;;;;;;5026405;28;20527;-65
2022/06/23 09:25:06;;;;;;;6.95;2.83;;;;;;;;;;5025220;28;20045;-65
2022/06/23 09:27:52;;;;;;;6.97;2.90;;;;;;;;;;5020672;28;20096;-64
2022/06/23 09:30:36;;;;;;;9.82;3.47;;;;;;;;;;5019708;28;20420;-65
2022/06/23 09:33:06;;;;;;;14.05;3.85;;;;;;;;;;5026795;28;20435;-65
2022/06/23 09:35:33;;;;;;;6.22;2.38;;;;;;;;;;5026400;28;20071;-65
2022/06/23 09:38:03;;;;;;;7.95;2.88;;;;;;;;;;5021506;28;20054;-65
2022/06/23 09:41:00;;;;;;;7.15;2.75;;;;;;;;;;5022794;28;20061;-73
2022/06/23 09:43:59;;;;;;;7.85;2.78;;;;;;;;;;5028564;28;20056;-72
2022/06/23 09:47:00;;;;;;;9.32;3.75;;;;;;;;;;5026526;28;20049;-63
2022/06/23 09:49:46;;;;;;;6.43;2.50;;;;;;;;;;5013087;28;20041;-64
2022/06/23 09:52:39;;;;;;;8.18;2.65;;;;;;;;;;5027909;28;20053;-64
2022/06/23 09:55:11;;;;;;;;;;;;;;;;;;5021491;28;20053;-63
2022/06/23 09:57:43;;;;;;;13.27;3.20;;;;;;;;;;5021000;28;19933;-63
2022/06/23 10:00:30;;;;;;;8.25;2.90;;;;;;;;;;5020789;28;20116;-64
2022/06/23 10:03:18;;;;;;;7.45;3.15;;;;;;;;;;5021895;28;20054;-64
2022/06/23 10:06:05;;;;;;;6.20;3.63;;;;;;;;;;5027145;28;20045;-64
2022/06/23 10:08:41;;;;;;;7.07;2.88;;;;;;;;;;5028601;28;20472;-64
2022/06/23 10:11:16;;;;;;;13.43;3.10;;;;;;;;;;5026849;28;20059;-64
2022/06/23 10:13:46;;;;;;;9.75;2.92;;;;;;;;;;5027478;28;20432;-64
2022/06/23 10:16:23;;;;;;;8.57;2.97;;;;;;;;;;5029407;28;20041;-64
2022/06/23 10:19:23;;;;;;;9.50;3.17;;;;;;;;;;5024266;28;20374;-64
2022/06/23 10:22:11;;;;;;;8.98;3.00;;;;;;;;;;5024289;28;20049;-64
2022/06/23 10:24:59;;;;;;;7.53;2.50;;;;;;;;;;5019640;28;20057;-64
2022/06/23 10:27:31;;;;;;;6.70;2.72;;;;;;;;;;5021328;28;20057;-68
2022/06/23 10:30:19;;;;;;;11.35;3.10;;;;;;;;;;5019226;28;20052;-66
2022/06/23 10:33:39;;;;;;;9.95;3.22;;;;;;;;;;5016183;28;20054;-64
2022/06/23 10:36:39;;;;;;;14.55;3.67;;;;;;;;;;5021541;28;20564;-64
2022/06/23 10:39:41;;;;;;;7.40;2.78;;;;;;;;;;5022724;28;20057;-64
2022/06/23 10:42:41;;;;;;;8.60;3.00;;;;;;;;;;5018676;28;20049;-64
2022/06/23 10:45:32;;;;;;;11.05;4.22;;;;;;;;;;5026165;28;20049;-66
2022/06/23 10:48:25;;;;;;;9.48;2.90;;;;;;;;;;5018414;28;20061;-63
2022/06/23 10:51:14;;;;;;;6.75;3.55;;;;;;;;;;5023073;28;20050;-66
2022/06/23 10:54:01;;;;;;;9.57;3.55;;;;;;;;;;5016346;28;20042;-66
2022/06/23 10:57:06;;;;;;;12.18;3.67;;;;;;;;;;5019941;28;20041;-66
2022/06/23 11:00:03;;;;;;;6.72;2.80;;;;;;;;;;5020896;28;20056;-66
2022/06/23 11:02:51;;;;;;;9.73;2.83;;;;;;;;;;5022054;28;20045;-66
2022/06/23 11:05:26;;;;;;;7.78;3.10;;;;;;;;;;5020186;28;20140;-66
2022/06/23 11:08:18;;;;;;;7.88;3.15;;;;;;;;;;5019128;28;20049;-66
2022/06/23 11:10:54;;;;;;;10.75;3.35;;;;;;;;;;5014522;28;20044;-66
2022/06/23 11:13:32;;;;;;;9.45;3.85;;;;;;;;;;5017788;28;20119;-66
2022/06/23 11:16:43;;;;;;;8.27;3.85;;;;;;;;;;5018093;28;20579;-67
2022/06/23 11:19:55;;;;;;;4.93;2.70;;;;;;;;;;5019106;28;20398;-70
2022/06/23 11:22:46;;;;;;;10.23;3.58;;;;;;;;;;5007069;28;20046;-72
2022/06/23 11:25:25;;;;;;;6.80;3.28;;;;;;;;;;5017793;28;20196;-68
2022/06/23 11:28:04;;;;;;;10.48;3.70;;;;;;;;;;5018430;28;20531;-68
2022/06/23 11:31:03;;;;;;;12.07;4.15;;;;;;;;;;5021410;28;20499;-73
2022/06/23 11:34:11;;;;;;;8.68;3.53;;;;;;;;;;4973442;28;20136;-70
2022/06/23 11:37:00;;;;;;;8.70;3.45;;;;;;;;;;5006467;28;20050;-75
2022/06/23 11:40:07;;;;;;;7.82;3.08;;;;;;;;;;5017631;28;20099;-74
2022/06/23 11:42:55;;;;;;;11.20;4.43;;;;;;;;;;4980709;28;20042;-73
2022/06/23 11:45:29;;;;;;;8.52;3.70;;;;;;;;;;5022694;28;20053;-72
2022/06/23 11:48:31;;;;;;;7.50;2.83;;;;;;;;;;5018453;28;20049;-70
2022/06/23 11:51:05;;;;;;;11.25;3.60;;;;;;;;;;5022180;28;20420;-66
2022/06/23 11:53:32;;;;;;;9.48;2.70;;;;;;;;;;5016566;28;20421;-70
2022/06/23 11:56:02;;;;;;;7.32;3.03;;;;;;;;;;5020730;28;20053;-72
2022/06/23 11:58:37;;;;;;;7.32;3.47;;;;;;;;;;5002067;28;20519;-72
2022/06/23 12:01:14;;;;;;;8.57;3.85;;;;;;;;;;5020711;28;20053;-67
2022/06/23 12:04:05;;;;;;;9.23;2.88;;;;;;;;;;5022411;28;20061;-66
2022/06/23 12:06:56;;;;;;;9.30;2.50;;;;;;;;;;5022416;28;20133;-70
2022/06/23 12:09:37;;;;;;;6.80;2.63;;;;;;;;;;5020533;28;21065;-71
2022/06/23 12:12:07;;;;;;;13.85;3.10;;;;;;;;;;5026233;28;20460;-69
2022/06/23 12:14:35;;;;;;;6.57;3.35;;;;;;;;;;5019235;28;20066;-73
2022/06/23 12:17:18;;;;;;;8.40;2.30;;;;;;;;;;5024317;28;20409;-71
2022/06/23 12:20:14;;;;;;;7.75;2.78;;;;;;;;;;5026291;28;20045;-68
2022/06/23 12:22:50;;;;;;;15.02;4.25;;;;;;;;;;5014304;28;20057;-69
2022/06/23 12:25:42;;;;;;;9.43;3.35;;;;;;;;;;5020493;28;20054;-73
2022/06/23 12:28:49;;;;;;;7.43;3.00;;;;;;;;;;5025794;28;20507;-68
2022/06/23 12:31:25;;;;;;;;;;;;;;;;;;5020890;28;20060;-68
2022/06/23 12:34:05;;;;;;;6.90;3.13;;;;;;;;;;5022076;28;20339;-67
2022/06/23 12:37:09;;;;;;;7.97;3.22;;;;;;;;;;5024530;28;20042;-67
2022/06/23 12:39:47;;;;;;;11.55;3.70;;;;;;;;;;5027451;28;20042;-67
2022/06/23 12:42:28;;;;;;;8.68;3.63;;;;;;;;;;5024012;28;20049;-66
2022/06/23 12:45:02;;;;;;;7.00;3.28;;;;;;;;;;5009140;28;20053;-71
2022/06/23 12:47:40;;;;;;;7.55;3.17;;;;;;;;;;5024279;28;20119;-64
2022/06/23 12:50:15;;;;;;;9.75;3.13;;;;;;;;;;5023648;28;20060;-64
2022/06/23 12:53:19;;;;;;;8.30;2.92;;;;;;;;;;5024905;28;20114;-64
2022/06/23 12:55:51;;;;;;;9.13;3.30;;;;;;;;;;5022861;28;20049;-64
2022/06/23 12:58:44;;;;;;;6.35;2.83;;;;;;;;;;5019743;28;20060;-65
2022/06/23 13:01:19;;;;;;;8.10;2.60;;;;;;;;;;5024562;28;20053;-64
2022/06/23 13:03:57;;;;;;;8.75;2.55;;;;;;;;;;5027462;28;20049;-64
2022/06/23 13:06:35;;;;;;;5.97;1.90;;;;;;;;;;5025772;28;20468;-65
2022/06/23 13:09:29;;;;;;;8.63;3.00;;;;;;;;;;5027503;28;20148;-65
2022/06/23 13:12:38;;;;;;;7.68;2.67;;;;;;;;;;5027934;28;20046;-64
2022/06/23 13:15:17;;;;;;;8.32;2.35;;;;;;;;;;5024843;28;20046;-65
2022/06/23 13:18:00;;;;;;;10.98;2.80;;;;;;;;;;5025487;28;20054;-66
2022/06/23 13:20:42;;;;;;;8.40;2.17;;;;;;;;;;5006578;28;20041;-65
2022/06/23 13:23:20;;;;;;;6.07;2.10;;;;;;;;;;5026992;28;20053;-65
2022/06/23 13:25:52;;;;;;;6.28;2.17;;;;;;;;;;5013665;28;20386;-65
2022/06/23 13:28:40;;;;;;;10.18;2.72;;;;;;;;;;5027929;28;20049;-65
2022/06/23 13:31:20;;;;;;;5.93;2.38;;;;;;;;;;5029629;28;20049;-65
2022/06/23 13:34:30;;;;;;;6.97;2.15;;;;;;;;;;5040395;28;20046;-65
2022/06/23 13:37:02;;;;;;;5.65;2.20;;;;;;;;;;5011546;28;20045;-67
2022/06/23 13:39:53;;;;;;;8.07;2.85;;;;;;;;;;5026655;28;20053;-67
2022/06/23 13:42:29;;;;;;;8.93;2.72;;;;;;;;;;5029505;28;20041;-67
2022/06/23 13:45:12;;;;;;;7.50;2.55;;;;;;;;;;5025900;28;20050;-67
2022/06/23 13:47:44;;;;;;;;;;;;;;;;;;5028408;28;20049;-67
2022/06/23 13:50:33;;;;;;;7.25;3.00;;;;;;;;;;5029018;28;19928;-67
2022/06/23 13:53:05;;;;;;;7.97;2.40;;;;;;;;;;5008382;28;20049;-67
2022/06/23 13:55:44;;;;;;;8.25;3.20;;;;;;;;;;5027993;28;20077;-67
2022/06/23 13:58:18;;;;;;;8.70;3.30;;;;;;;;;;5024424;28;20056;-65
2022/06/23 14:01:00;;;;;;;8.30;3.25;;;;;;;;;;5019776;28;20038;-65
2022/06/23 14:04:00;;;;;;;10.30;2.97;;;;;;;;;;5021139;28;20049;-65
2022/06/23 14:06:39;;;;;;;5.82;3.03;;;;;;;;;;5014789;28;20053;-67
2022/06/23 14:09:20;;;;;;;7.63;2.67;;;;;;;;;;5022373;28;20046;-67
2022/06/23 14:12:35;;;;;;;9.60;3.05;;;;;;;;;;5019161;28;20073;-66
2022/06/23 14:15:13;;;;;;;11.10;3.17;;;;;;;;;;5001548;28;20427;-66
2022/06/23 14:17:59;;;;;;;13.07;3.85;;;;;;;;;;5002459;28;20057;-66
2022/06/23 14:20:29;;;;;;;7.28;2.90;;;;;;;;;;5033415;28;20057;-66
2022/06/23 14:23:00;;;;;;;7.07;2.40;;;;;;;;;;5019295;28;20045;-66
2022/06/23 14:25:36;;;;;;;6.38;2.50;;;;;;;;;;5022859;28;21735;-66
2022/06/23 14:28:28;;;;;;;6.05;2.60;;;;;;;;;;5011706;28;20045;-66
2022/06/23 14:31:33;;;;;;;6.50;3.17;;;;;;;;;;5025384;28;20484;-66
2022/06/23 14:34:27;;;;;;;8.50;3.45;;;;;;;;;;5040301;28;20049;-66
2022/06/23 14:37:44;;;;;;;9.50;3.20;;;;;;;;;;5026674;28;20048;-67
2022/06/23 14:40:15;;;;;;;7.57;3.30;;;;;;;;;;4984585;28;20049;-66
2022/06/23 14:42:46;;;;;;;8.70;3.03;;;;;;;;;;5022646;28;20085;-66
2022/06/23 14:45:39;;;;;;;7.73;3.37;;;;;;;;;;5023891;28;20049;-66
2022/06/23 14:48:24;;;;;;;11.15;3.22;;;;;;;;;;5016355;28;20751;-66
2022/06/23 14:50:58;;;;;;;10.10;4.18;;;;;;;;;;5027313;28;20050;-66
2022/06/23 14:53:31;;;;;;;10.85;3.92;;;;;;;;;;5009447;28;20055;-66
2022/06/23 14:56:06;;;;;;;11.38;3.58;;;;;;;;;;5027380;28;20062;-66
2022/06/23 14:58:41;;;;;;;10.02;3.13;;;;;;;;;;5019575;28;20041;-66
2022/06/23 15:01:22;;;;;;;7.97;3.53;;;;;;;;;;5020442;28;20071;-66
2022/06/23 15:04:09;;;;;;;10.37;3.87;;;;;;;;;;5022743;28;20045;-67
2022/06/23 15:06:50;;;;;;;8.40;4.00;;;;;;;;;;5024049;28;20046;-71
2022/06/23 15:09:55;;;;;;;10.63;3.00;;;;;;;;;;5022076;28;20052;-68
2022/06/23 15:12:36;;;;;;;10.05;3.50;;;;;;;;;;5043360;22;20053;-65
2022/06/23 15:15:32;;;;;;;9.23;3.20;;;;;;;;;;5059998;28;20072;-67
2022/06/23 15:18:02;;;;;;;8.38;3.22;;;;;;;;;;5059861;28;20063;-70
2022/06/23 15:20:44;;;;;;;9.93;2.83;;;;;;;;;;5056750;28;20060;-72
2022/06/23 15:23:29;;;;;;;;;;;;;;;;;;5044362;28;20051;-71
2022/06/23 15:26:16;;;;;;;8.25;3.92;;;;;;;;;;5060481;28;20334;-69
2022/06/23 15:28:51;;;;;;;8.35;3.47;;;;;;;;;;5061311;28;20502;-70
2022/06/23 15:31:36;;;;;;;11.88;4.03;;;;;;;;;;5059803;28;20052;-67
2022/06/23 15:34:06;;;;;;;6.07;3.10;;;;;;;;;;5060661;28;20392;-67
2022/06/23 15:36:47;;;;;;;8.48;3.20;;;;;;;;;;5056624;28;20525;-66
2022/06/23 15:39:36;;;;;;;8.35;3.58;;;;;;;;;;5045915;28;20056;-67
2022/06/23 15:42:06;;;;;;;10.40;3.30;;;;;;;;;;5061138;28;20049;-66
2022/06/23 15:45:11;;;;;;;9.18;3.28;;;;;;;;;;5058132;28;20067;-66
2022/06/23 15:47:41;;;;;;;10.07;3.67;;;;;;;;;;5057876;28;20048;-66
2022/06/23 15:50:23;;;;;;;7.38;2.72;;;;;;;;;;5057872;28;20064;-66
2022/06/23 15:53:09;;;;;;;;;;;;;;;;;;5060199;28;20106;-66
2022/06/23 15:55:58;;;;;;;11.23;3.10;;;;;;;;;;5061164;28;20496;-65
2022/06/23 15:58:40;;;;;;;9.27;3.05;;;;;;;;;;5058010;28;20099;-66
2022/06/23 16:01:24;;;;;;;8.20;2.72;;;;;;;;;;5072910;28;20045;-66
2022/06/23 16:03:51;;;;;;;9.05;2.72;;;;;;;;;;5055688;28;20045;-66